(°C)
26°
25°
25°
24°
24°
24°
23°
(°C)
30°
30°
29°
29°
28°
28°
27°
СИ
И
И
И
И
ИСИ
ИСИ
(km/h)
6-13
6-13
6-13
5-12
5-10
4-9
5-9
(mm)
0
0
0
0
0
0
0
(%)
11
8
5
5
5
4
4

Издигане на слънцето

/ -59.9°
sun-icon
UV 7
07:18
19:23
Намаляваща полу-луна (242°)
22:59
12:19

METAR за Тампа (KTPF)

Час Условия Температура/
Точка на оросяване
Вятър Видимост Времето Облаци Налягане Промяна Сурови
VFR 26°C / 23°C 110º 6kt >10km - Broken Clouds 9500ft - KTPF 260415Z AUTO 11006KT 10SM BKN095 OVC110 26/23 A3006 RMK AO2
VFR 26°C / 23°C 100º 6kt >10km - Scattered Clouds 8000ft - KTPF 260355Z AUTO 10006KT 10SM SCT080 OVC095 26/23 A3006 RMK AO2
VFR 26°C / 23°C 100º 5kt >10km - Overcast 9500ft - KTPF 260335Z AUTO 10005KT 10SM OVC095 26/23 A3006 RMK AO2
VFR 26°C / 23°C 100º 7kt >10km - Broken Clouds 9500ft - KTPF 260315Z AUTO 10007KT 10SM BKN095 BKN120 26/23 A3005 RMK AO2
VFR 27°C / 22°C 70º 8kt >10km - Scattered Clouds 9500ft - KTPF 260255Z AUTO 07008KT 10SM SCT095 BKN110 27/22 A3004 RMK AO2
VFR 27°C / 22°C 50º 8kt >10km - Scattered Clouds 9000ft - KTPF 260235Z AUTO 05008KT 10SM SCT090 OVC110 27/22 A3004 RMK AO2
VFR 27°C / 21°C 30º 5kt >10km - Scattered Clouds 8000ft - KTPF 260215Z AUTO 03005KT 10SM SCT080 OVC100 27/21 A3003 RMK AO2
VFR 27°C / 21°C 20º 4kt >10km - Scattered Clouds 8000ft - KTPF 260155Z AUTO 02004KT 10SM SCT080 BKN100 OVC110 27/21 A3003 RMK AO2
VFR 27°C / 21°C 30º 4kt >10km - Scattered Clouds 7500ft - KTPF 260135Z AUTO 03004KT 10SM SCT075 BKN100 OVC120 27/21 A3002 RMK AO2
VFR 28°C / 21°C 20º 4kt >10km - Scattered Clouds 7500ft - KTPF 260115Z AUTO 02004KT 10SM SCT075 BKN090 OVC120 28/21 A3002 RMK AO2
VFR 28°C / 21°C 20º 4kt >10km - Scattered Clouds 7500ft - KTPF 260055Z AUTO 02004KT 10SM SCT075 BKN090 BKN110 28/21 A3001 RMK AO2
VFR 28°C / 21°C 360º 5kt >10km - Broken Clouds 9000ft - KTPF 260035Z AUTO 36005KT 10SM BKN090 OVC110 28/21 A3001 RMK AO2
VFR 29°C / 20°C 10º 4kt >10km - Scattered Clouds 8000ft - KTPF 260015Z AUTO 01004KT 10SM SCT080 BKN100 BKN120 29/20 A3000 RMK AO2
VFR 29°C / 21°C 360º 3kt >10km - Scattered Clouds 8000ft - KTPF 252355Z AUTO 36003KT 10SM SCT080 BKN110 29/21 A3000 RMK AO2
VFR 30°C / 21°C 340º 3kt >10km - Scattered Clouds 7500ft - KTPF 252335Z AUTO 34003KT 10SM SCT075 BKN100 OVC120 30/21 A2999 RMK AO2
VFR 30°C / 21°C 330º 4kt >10km - Scattered Clouds 7500ft - KTPF 252315Z AUTO 33004KT 10SM SCT075 BKN100 OVC120 30/21 A2998 RMK AO2
VFR 30°C / 21°C 330º 6kt >10km - Scattered Clouds 7000ft - KTPF 252255Z AUTO 33006KT 10SM SCT070 BKN100 OVC110 30/21 A2998 RMK AO2
VFR 31°C / 21°C 10º 5kt >10km - Scattered Clouds 6000ft - KTPF 252235Z AUTO 01005KT 10SM SCT060 OVC100 31/21 A2998 RMK AO2
VFR 31°C / 21°C variable 0kt >10km - Scattered Clouds 6000ft - KTPF 252215Z AUTO 00000KT 10SM SCT060 SCT070 OVC100 31/21 A2997 RMK AO2
VFR 32°C / 22°C 350º 4kt >10km - Scattered Clouds 5000ft - KTPF 252155Z AUTO 35004KT 10SM SCT050 BKN070 OVC090 32/22 A2997 RMK AO2
VFR 32°C / 21°C 350º 4kt >10km - Overcast 5000ft - KTPF 252135Z AUTO 35004KT 10SM OVC050 32/21 A2997 RMK AO2
VFR 32°C / 21°C variable 0kt >10km - Broken Clouds 5000ft - KTPF 252115Z AUTO 00000KT 10SM BKN050 OVC065 32/21 A2997 RMK AO2
VFR 32°C / 21°C variable 0kt >10km - Broken Clouds 5000ft - KTPF 252055Z AUTO 00000KT 10SM BKN050 BKN065 OVC095 32/21 A2997 RMK AO2
VFR 33°C / 22°C 330º 3kt >10km - Scattered Clouds 5000ft - KTPF 252035Z AUTO 33003KT 10SM SCT050 BKN065 OVC095 33/22 A2997 RMK AO2

VFR

26°C / 23°C

[Още]
Вятър 110º 6kt
Видимост >10km
Времето -
Облаци Broken Clouds 9500ft
Налягане
Промяна -
Сурови KTPF 260415Z AUTO 11006KT 10SM BKN095 OVC110 26/23 A3006 RMK AO2

VFR

26°C / 23°C

[Още]
Вятър 100º 6kt
Видимост >10km
Времето -
Облаци Scattered Clouds 8000ft
Налягане
Промяна -
Сурови KTPF 260355Z AUTO 10006KT 10SM SCT080 OVC095 26/23 A3006 RMK AO2

VFR

26°C / 23°C

[Още]
Вятър 100º 5kt
Видимост >10km
Времето -
Облаци Overcast 9500ft
Налягане
Промяна -
Сурови KTPF 260335Z AUTO 10005KT 10SM OVC095 26/23 A3006 RMK AO2

VFR

26°C / 23°C

[Още]
Вятър 100º 7kt
Видимост >10km
Времето -
Облаци Broken Clouds 9500ft
Налягане
Промяна -
Сурови KTPF 260315Z AUTO 10007KT 10SM BKN095 BKN120 26/23 A3005 RMK AO2

VFR

27°C / 22°C

[Още]
Вятър 70º 8kt
Видимост >10km
Времето -
Облаци Scattered Clouds 9500ft
Налягане
Промяна -
Сурови KTPF 260255Z AUTO 07008KT 10SM SCT095 BKN110 27/22 A3004 RMK AO2

VFR

27°C / 22°C

[Още]
Вятър 50º 8kt
Видимост >10km
Времето -
Облаци Scattered Clouds 9000ft
Налягане
Промяна -
Сурови KTPF 260235Z AUTO 05008KT 10SM SCT090 OVC110 27/22 A3004 RMK AO2

VFR

27°C / 21°C

[Още]
Вятър 30º 5kt
Видимост >10km
Времето -
Облаци Scattered Clouds 8000ft
Налягане
Промяна -
Сурови KTPF 260215Z AUTO 03005KT 10SM SCT080 OVC100 27/21 A3003 RMK AO2

VFR

27°C / 21°C

[Още]
Вятър 20º 4kt
Видимост >10km
Времето -
Облаци Scattered Clouds 8000ft
Налягане
Промяна -
Сурови KTPF 260155Z AUTO 02004KT 10SM SCT080 BKN100 OVC110 27/21 A3003 RMK AO2

VFR

27°C / 21°C

[Още]
Вятър 30º 4kt
Видимост >10km
Времето -
Облаци Scattered Clouds 7500ft
Налягане
Промяна -
Сурови KTPF 260135Z AUTO 03004KT 10SM SCT075 BKN100 OVC120 27/21 A3002 RMK AO2

VFR

28°C / 21°C

[Още]
Вятър 20º 4kt
Видимост >10km
Времето -
Облаци Scattered Clouds 7500ft
Налягане
Промяна -
Сурови KTPF 260115Z AUTO 02004KT 10SM SCT075 BKN090 OVC120 28/21 A3002 RMK AO2

VFR

28°C / 21°C

[Още]
Вятър 20º 4kt
Видимост >10km
Времето -
Облаци Scattered Clouds 7500ft
Налягане
Промяна -
Сурови KTPF 260055Z AUTO 02004KT 10SM SCT075 BKN090 BKN110 28/21 A3001 RMK AO2

VFR

28°C / 21°C

[Още]
Вятър 360º 5kt
Видимост >10km
Времето -
Облаци Broken Clouds 9000ft
Налягане
Промяна -
Сурови KTPF 260035Z AUTO 36005KT 10SM BKN090 OVC110 28/21 A3001 RMK AO2

VFR

29°C / 20°C

[Още]
Вятър 10º 4kt
Видимост >10km
Времето -
Облаци Scattered Clouds 8000ft
Налягане
Промяна -
Сурови KTPF 260015Z AUTO 01004KT 10SM SCT080 BKN100 BKN120 29/20 A3000 RMK AO2

VFR

29°C / 21°C

[Още]
Вятър 360º 3kt
Видимост >10km
Времето -
Облаци Scattered Clouds 8000ft
Налягане
Промяна -
Сурови KTPF 252355Z AUTO 36003KT 10SM SCT080 BKN110 29/21 A3000 RMK AO2

VFR

30°C / 21°C

[Още]
Вятър 340º 3kt
Видимост >10km
Времето -
Облаци Scattered Clouds 7500ft
Налягане
Промяна -
Сурови KTPF 252335Z AUTO 34003KT 10SM SCT075 BKN100 OVC120 30/21 A2999 RMK AO2

VFR

30°C / 21°C

[Още]
Вятър 330º 4kt
Видимост >10km
Времето -
Облаци Scattered Clouds 7500ft
Налягане
Промяна -
Сурови KTPF 252315Z AUTO 33004KT 10SM SCT075 BKN100 OVC120 30/21 A2998 RMK AO2

VFR

30°C / 21°C

[Още]
Вятър 330º 6kt
Видимост >10km
Времето -
Облаци Scattered Clouds 7000ft
Налягане
Промяна -
Сурови KTPF 252255Z AUTO 33006KT 10SM SCT070 BKN100 OVC110 30/21 A2998 RMK AO2

VFR

31°C / 21°C

[Още]
Вятър 10º 5kt
Видимост >10km
Времето -
Облаци Scattered Clouds 6000ft
Налягане
Промяна -
Сурови KTPF 252235Z AUTO 01005KT 10SM SCT060 OVC100 31/21 A2998 RMK AO2

VFR

31°C / 21°C

[Още]
Вятър variable 0kt
Видимост >10km
Времето -
Облаци Scattered Clouds 6000ft
Налягане
Промяна -
Сурови KTPF 252215Z AUTO 00000KT 10SM SCT060 SCT070 OVC100 31/21 A2997 RMK AO2

VFR

32°C / 22°C

[Още]
Вятър 350º 4kt
Видимост >10km
Времето -
Облаци Scattered Clouds 5000ft
Налягане
Промяна -
Сурови KTPF 252155Z AUTO 35004KT 10SM SCT050 BKN070 OVC090 32/22 A2997 RMK AO2

VFR

32°C / 21°C

[Още]
Вятър 350º 4kt
Видимост >10km
Времето -
Облаци Overcast 5000ft
Налягане
Промяна -
Сурови KTPF 252135Z AUTO 35004KT 10SM OVC050 32/21 A2997 RMK AO2

VFR

32°C / 21°C

[Още]
Вятър variable 0kt
Видимост >10km
Времето -
Облаци Broken Clouds 5000ft
Налягане
Промяна -
Сурови KTPF 252115Z AUTO 00000KT 10SM BKN050 OVC065 32/21 A2997 RMK AO2

VFR

32°C / 21°C

[Още]
Вятър variable 0kt
Видимост >10km
Времето -
Облаци Broken Clouds 5000ft
Налягане
Промяна -
Сурови KTPF 252055Z AUTO 00000KT 10SM BKN050 BKN065 OVC095 32/21 A2997 RMK AO2

VFR

33°C / 22°C

[Още]
Вятър 330º 3kt
Видимост >10km
Времето -
Облаци Scattered Clouds 5000ft
Налягане
Промяна -
Сурови KTPF 252035Z AUTO 33003KT 10SM SCT050 BKN065 OVC095 33/22 A2997 RMK AO2

Актуални сателитни изображения за Тампа, Съединени щати

Маркерът за локация е поставен върху Тампа. [Още]

Сателитното изображение в реално време съчетава видимата светлина през деня с инфрачервеното лъчение през нощта. През нощта изображението не е тъмно, тъй като инфрачервеното лъчение може да открива температурни разлики. За съжаление ниските облаци и мъглата са трудни за разграничаване от температурите на земята и затова могат да бъдат почти невидими през нощта. Сателитните изображения на Meteosat за Европа се актуализират в реално време на всеки 5 минути. Изображенията GOES-16/GOES-17 (Северна и Южна Америка) и Химавари (Азия) се актуализират на всеки 10 минути.

Радар и валежи в момента за Тампа

Капчица
Лек
Умерен
Тежък
Много тежък
Аве

Маркерът за локация обозначава Тампа. Анимацията показва Радара за валежи за последния час, както и прогноза за 1h. Дъждът или лекият сняг може да са невидими за радара. Интензивността на валежите е обозначена с цветни кодове, вариращи от светлосиньо до оранжево.